Terminal Aerodrome Forecast
Issued by NWS

Home | Current Version | Previous Version | Text Only | Print | Product List | Glossary On
Versions: 1 2 3 4 5 6 7 8 9 10 11 12 13 14 15 16
000
FTUS46 KMTR 250500
TAFSJC
TAF
KSJC 250522Z 2506/2606 31005KT P6SM SCT015 OVC025
     FM251300 16005KT P6SM -SHRA OVC025
     FM252000 16008KT P6SM -SHRA BKN030
     FM260000 27010KT P6SM SCT040=

USA.gov is the U.S. government's official web portal to all federal, state and local government web resources and services.